Time;durP1;ratioP1;P1;durP2;ratioP2;P2;SDS_P1;SDS_P2;PMS_P1;PMS_P2;Temp;Humidity;BMP_temperature;BMP_pressure;BME280_temperature;BME280_humidity;BME280_pressure;Samples;Min_cycle;Max_cycle;Signal;HPM_P1;HPM_P2
2022/08/20 00:00:48;;;;;;;10.30;6.18;;;18.80;99.90;;;;;;5021534;28;20050;-81
2022/08/20 00:03:26;;;;;;;8.68;6.05;;;18.90;99.90;;;;;;5036132;28;20054;-80
2022/08/20 00:06:05;;;;;;;6.45;5.78;;;18.80;99.90;;;;;;5033201;28;20538;-81
2022/08/20 00:08:32;;;;;;;6.47;5.70;;;18.80;99.90;;;;;;5035575;28;20137;-80
2022/08/20 00:11:00;;;;;;;8.65;5.75;;;18.80;99.90;;;;;;5036319;28;20088;-81
2022/08/20 00:13:49;;;;;;;7.10;5.30;;;18.80;99.90;;;;;;5034374;28;20073;-80
2022/08/20 00:16:17;;;;;;;5.97;5.38;;;18.80;99.90;;;;;;5035384;28;20053;-81
2022/08/20 00:18:45;;;;;;;6.43;5.30;;;18.80;99.90;;;;;;5022543;28;20084;-81
2022/08/20 00:21:15;;;;;;;7.05;5.60;;;18.90;99.90;;;;;;5023372;28;20069;-80
2022/08/20 00:23:47;;;;;;;7.15;4.38;;;19.00;99.90;;;;;;5035955;28;20125;-81
2022/08/20 00:26:14;;;;;;;6.30;5.13;;;18.90;99.90;;;;;;5038198;28;20073;-81
2022/08/20 00:28:41;;;;;;;9.93;5.45;;;19.00;99.90;;;;;;5027066;28;20076;-80
2022/08/20 00:31:10;;;;;;;8.30;5.85;;;19.00;99.90;;;;;;5026781;28;20073;-81
2022/08/20 00:33:40;;;;;;;9.88;6.32;;;19.10;99.90;;;;;;5023750;28;20129;-81
2022/08/20 00:36:09;;;;;;;6.03;5.03;;;19.10;99.90;;;;;;5024818;28;20054;-81
2022/08/20 00:38:39;;;;;;;9.80;5.00;;;19.10;99.90;;;;;;5023000;28;20058;-82
2022/08/20 00:41:08;;;;;;;6.77;4.97;;;19.20;99.90;;;;;;5024768;28;20077;-81
2022/08/20 00:43:37;;;;;;;5.80;5.00;;;19.20;99.90;;;;;;5025627;28;20049;-81
2022/08/20 00:46:08;;;;;;;7.40;4.03;;;19.20;99.90;;;;;;5035823;28;20088;-81
2022/08/20 00:48:37;;;;;;;9.30;7.43;;;19.20;99.90;;;;;;5035034;28;20138;-81
2022/08/20 00:51:25;;;;;;;7.13;4.53;;;19.20;99.90;;;;;;5033992;28;20048;-81
2022/08/20 00:54:01;;;;;;;7.15;4.55;;;19.20;99.90;;;;;;5036982;28;20053;-81
2022/08/20 00:56:32;;;;;;;8.45;4.75;;;19.20;99.90;;;;;;5036448;28;20052;-82
2022/08/20 00:59:00;;;;;;;7.97;3.28;;;19.30;99.90;;;;;;5034617;28;20053;-82
2022/08/20 01:01:27;;;;;;;5.07;4.00;;;19.30;99.90;;;;;;5025313;28;20109;-81
2022/08/20 01:03:55;;;;;;;6.00;3.78;;;19.30;99.90;;;;;;5033641;28;20054;-81
2022/08/20 01:06:23;;;;;;;7.20;3.58;;;19.30;99.90;;;;;;5034567;28;20576;-82
2022/08/20 01:08:51;;;;;;;5.03;3.47;;;19.40;99.90;;;;;;5033346;28;20072;-81
2022/08/20 01:11:21;;;;;;;4.93;3.83;;;19.40;99.90;;;;;;5033809;28;20077;-82
2022/08/20 01:13:49;;;;;;;6.05;3.63;;;19.40;99.90;;;;;;5032500;28;20045;-82
2022/08/20 01:16:24;;;;;;;5.28;3.63;;;19.40;99.90;;;;;;5032620;28;20088;-82
2022/08/20 01:18:56;;;;;;;6.18;3.65;;;19.40;99.90;;;;;;5034121;28;20045;-83
2022/08/20 01:21:30;;;;;;;4.50;3.20;;;19.50;99.90;;;;;;5034854;28;20049;-82
2022/08/20 01:24:06;;;;;;;8.95;3.75;;;19.50;99.90;;;;;;5038706;28;20068;-83
2022/08/20 01:26:42;;;;;;;4.72;3.28;;;19.50;99.90;;;;;;5029409;28;20045;-79
2022/08/20 01:29:16;;;;;;;6.60;3.63;;;19.50;99.90;;;;;;5034826;28;20081;-81
2022/08/20 01:31:44;;;;;;;4.82;3.33;;;19.50;99.90;;;;;;5034485;28;20046;-81
2022/08/20 01:34:16;;;;;;;6.22;3.60;;;19.50;99.90;;;;;;5036040;28;20077;-81
2022/08/20 01:36:47;;;;;;;6.18;3.35;;;19.50;99.90;;;;;;5032609;28;20122;-82
2022/08/20 01:39:42;;;;;;;5.03;3.25;;;19.40;99.90;;;;;;5030975;28;20765;-81
2022/08/20 01:42:25;;;;;;;4.97;2.95;;;19.40;99.90;;;;;;5025875;28;20132;-82
2022/08/20 01:44:52;;;;;;;4.68;3.63;;;19.40;99.90;;;;;;5030630;28;20084;-82
2022/08/20 01:47:22;;;;;;;5.20;3.13;;;19.50;99.90;;;;;;5021509;28;20046;-82
2022/08/20 01:49:52;;;;;;;6.32;3.33;;;19.50;99.90;;;;;;5030809;28;20076;-81
2022/08/20 01:52:23;;;;;;;5.32;2.88;;;19.50;99.90;;;;;;5031618;28;20085;-82
2022/08/20 01:54:51;;;;;;;6.55;3.22;;;19.50;99.90;;;;;;5032066;28;20077;-82
2022/08/20 01:57:19;;;;;;;3.78;3.20;;;19.50;99.90;;;;;;5032914;28;20050;-82
2022/08/20 01:59:48;;;;;;;5.35;3.35;;;19.60;99.90;;;;;;5031999;28;20061;-82
2022/08/20 02:02:15;;;;;;;5.68;3.10;;;19.60;99.90;;;;;;5031199;28;20105;-83
2022/08/20 02:04:42;;;;;;;5.43;2.90;;;19.60;99.90;;;;;;5030042;28;20061;-82
2022/08/20 02:07:15;;;;;;;6.10;3.78;;;19.60;99.90;;;;;;5030061;28;20045;-79
2022/08/20 02:09:43;;;;;;;6.00;3.15;;;19.60;99.90;;;;;;5029639;28;20046;-80
2022/08/20 02:12:10;;;;;;;7.97;3.45;;;19.70;99.90;;;;;;5029412;28;20076;-81
2022/08/20 02:14:47;;;;;;;5.15;2.97;;;19.70;99.90;;;;;;5039831;28;20050;-81
2022/08/20 02:17:15;;;;;;;6.25;3.33;;;19.70;99.90;;;;;;5033673;28;20113;-81
2022/08/20 02:19:47;;;;;;;4.75;3.03;;;19.70;99.90;;;;;;5034575;28;20053;-81
2022/08/20 02:22:19;;;;;;;11.20;3.58;;;19.70;99.90;;;;;;5035481;28;20079;-81
2022/08/20 02:24:47;;;;;;;3.63;3.00;;;19.80;99.90;;;;;;5031947;28;20053;-81
2022/08/20 02:27:14;;;;;;;4.65;3.33;;;19.70;99.90;;;;;;5031925;28;20050;-81
2022/08/20 02:29:41;;;;;;;4.60;3.10;;;19.90;99.90;;;;;;5025433;28;20042;-82
2022/08/20 02:32:08;;;;;;;5.15;3.22;;;19.80;99.90;;;;;;5024951;28;20077;-81
2022/08/20 02:34:54;;;;;;;3.67;3.38;;;19.80;99.90;;;;;;5030667;28;20125;-81
2022/08/20 02:37:21;;;;;;;4.20;3.20;;;19.80;99.90;;;;;;5037499;28;20060;-82
2022/08/20 02:39:48;;;;;;;6.55;3.65;;;19.80;99.90;;;;;;5038475;28;20085;-82
2022/08/20 02:42:15;;;;;;;4.50;3.08;;;19.80;99.90;;;;;;5038958;28;20081;-81
2022/08/20 02:44:42;;;;;;;4.70;3.25;;;19.80;99.90;;;;;;5047104;28;20054;-81
2022/08/20 02:47:09;;;;;;;13.55;4.13;;;19.90;99.90;;;;;;5043180;28;20046;-81
2022/08/20 02:49:36;;;;;;;3.90;3.15;;;19.80;99.90;;;;;;5038448;28;20105;-81
2022/08/20 02:52:02;;;;;;;4.20;3.15;;;19.80;99.90;;;;;;5039660;28;20069;-82
2022/08/20 02:54:29;;;;;;;4.40;3.42;;;19.90;99.90;;;;;;5038758;28;20068;-81
2022/08/20 02:56:56;;;;;;;3.92;3.10;;;19.90;99.90;;;;;;5034075;28;20129;-81
2022/08/20 02:59:23;;;;;;;8.70;3.50;;;19.90;99.90;;;;;;5033738;28;20109;-80
2022/08/20 03:01:51;;;;;;;6.13;3.55;;;19.90;99.90;;;;;;5039297;28;20061;-82
2022/08/20 03:04:28;;;;;;;4.97;3.25;;;19.90;99.90;;;;;;5040221;28;20053;-82
2022/08/20 03:06:55;;;;;;;3.70;3.00;;;19.80;99.90;;;;;;5028393;28;20046;-81
2022/08/20 03:09:22;;;;;;;6.97;3.30;;;19.90;99.90;;;;;;5028054;28;20113;-81
2022/08/20 03:11:49;;;;;;;6.85;3.05;;;19.80;99.90;;;;;;5041466;28;20065;-80
2022/08/20 03:14:15;;;;;;;4.80;3.47;;;19.90;99.90;;;;;;5042709;28;20077;-81
2022/08/20 03:16:42;;;;;;;5.30;3.00;;;19.90;99.90;;;;;;5035789;28;20076;-81
2022/08/20 03:19:09;;;;;;;5.72;3.40;;;19.90;99.90;;;;;;5018313;28;20049;-81
2022/08/20 03:21:36;;;;;;;6.95;3.67;;;19.90;99.90;;;;;;5018864;28;20444;-81
2022/08/20 03:24:03;;;;;;;4.63;3.25;;;19.90;99.90;;;;;;5030850;28;20593;-81
2022/08/20 03:26:29;;;;;;;4.03;3.30;;;19.90;99.90;;;;;;5032431;28;20064;-81
2022/08/20 03:28:56;;;;;;;4.88;3.00;;;20.10;99.90;;;;;;5035522;28;20045;-81
2022/08/20 03:31:23;;;;;;;5.65;3.28;;;19.90;99.90;;;;;;5035664;28;20049;-81
2022/08/20 03:33:50;;;;;;;5.07;3.00;;;19.90;99.90;;;;;;5035649;28;20125;-81
2022/08/20 03:36:23;;;;;;;3.65;3.25;;;19.90;99.90;;;;;;5036612;28;20159;-81
2022/08/20 03:38:56;;;;;;;6.25;3.45;;;19.90;99.90;;;;;;5036985;28;20084;-81
2022/08/20 03:41:23;;;;;;;4.10;3.33;;;19.90;99.90;;;;;;5036580;28;20057;-81
2022/08/20 03:43:50;;;;;;;9.00;3.83;;;19.90;99.90;;;;;;5036416;28;20045;-80
2022/08/20 03:46:17;;;;;;;5.72;3.38;;;19.90;99.90;;;;;;5036675;28;20132;-81
2022/08/20 03:48:52;;;;;;;4.57;3.50;;;20.00;99.90;;;;;;5036950;28;20045;-81
2022/08/20 03:51:28;;;;;;;6.18;3.38;;;19.90;99.90;;;;;;5020123;28;20140;-82
2022/08/20 03:53:54;;;;;;;4.85;3.20;;;19.90;99.90;;;;;;5017742;28;20088;-81
2022/08/20 03:56:21;;;;;;;4.10;2.80;;;19.80;99.90;;;;;;5025240;28;20460;-82
2022/08/20 03:58:48;;;;;;;4.55;3.35;;;19.90;99.90;;;;;;5023581;28;20077;-82
2022/08/20 04:01:15;;;;;;;4.65;3.30;;;19.80;99.90;;;;;;5024924;28;20061;-82
2022/08/20 04:04:02;;;;;;;5.45;3.17;;;19.90;99.90;;;;;;5042674;28;20053;-81
2022/08/20 04:06:29;;;;;;;4.97;3.47;;;19.80;99.90;;;;;;5045032;28;20512;-81
2022/08/20 04:08:55;;;;;;;5.28;3.08;;;19.90;99.90;;;;;;5044024;28;20113;-83
2022/08/20 04:11:23;;;;;;;15.23;3.40;;;19.80;99.90;;;;;;5024452;28;20045;-81
2022/08/20 04:13:50;;;;;;;6.03;3.10;;;19.80;99.90;;;;;;5036269;28;20049;-82
2022/08/20 04:16:16;;;;;;;3.25;2.63;;;19.80;99.90;;;;;;5027360;28;20056;-82
2022/08/20 04:18:47;;;;;;;4.38;2.60;;;19.80;99.90;;;;;;5041024;28;20064;-81
2022/08/20 04:21:32;;;;;;;5.90;2.50;;;19.80;99.90;;;;;;5041279;28;20199;-82
2022/08/20 04:24:03;;;;;;;3.42;3.10;;;19.80;99.90;;;;;;5041491;28;20057;-81
2022/08/20 04:26:31;;;;;;;6.90;2.97;;;19.80;99.90;;;;;;5026986;28;20089;-81
2022/08/20 04:28:57;;;;;;;6.45;2.97;;;19.80;99.90;;;;;;5027322;28;20102;-82
2022/08/20 04:31:32;;;;;;;4.07;2.80;;;19.90;99.90;;;;;;5028535;28;20102;-79
2022/08/20 04:34:01;;;;;;;3.80;3.08;;;19.80;99.90;;;;;;5033418;28;20050;-80
2022/08/20 04:36:28;;;;;;;3.35;3.05;;;19.80;99.90;;;;;;5031374;28;20081;-81
2022/08/20 04:38:54;;;;;;;4.65;2.92;;;19.90;99.90;;;;;;5028651;28;20064;-81
2022/08/20 04:41:22;;;;;;;3.85;2.65;;;19.90;99.90;;;;;;5026984;28;20136;-82
2022/08/20 04:43:54;;;;;;;6.00;2.83;;;19.80;99.90;;;;;;5038215;28;20091;-82
2022/08/20 04:46:24;;;;;;;5.10;2.53;;;19.90;99.90;;;;;;5038848;28;20064;-81
2022/08/20 04:48:52;;;;;;;5.25;2.53;;;19.90;99.90;;;;;;5038022;28;20045;-81
2022/08/20 04:51:19;;;;;;;4.78;2.97;;;19.90;99.90;;;;;;5038173;28;20081;-82
2022/08/20 04:53:49;;;;;;;;;;;20.30;99.90;;;;;;5037551;28;20045;-82
2022/08/20 04:56:22;;;;;;;3.30;2.83;;;20.00;99.90;;;;;;5037048;28;19905;-81
2022/08/20 04:58:49;;;;;;;3.28;2.60;;;20.00;99.90;;;;;;5038012;28;20032;-82
2022/08/20 05:01:17;;;;;;;3.97;2.30;;;20.00;99.90;;;;;;5038376;28;20033;-82
2022/08/20 05:03:46;;;;;;;4.78;3.00;;;20.00;99.90;;;;;;5038872;28;20030;-81
2022/08/20 05:06:16;;;;;;;3.77;3.17;;;20.00;99.90;;;;;;5041325;28;20029;-82
2022/08/20 05:08:43;;;;;;;9.70;3.88;;;20.00;99.90;;;;;;5034416;28;20041;-81
2022/08/20 05:11:12;;;;;;;4.43;3.58;;;20.00;99.90;;;;;;5032676;28;20069;-82
2022/08/20 05:13:59;;;;;;;5.38;3.45;;;20.00;99.90;;;;;;5032069;28;20124;-82
2022/08/20 05:16:25;;;;;;;4.07;3.40;;;20.00;99.90;;;;;;5024235;28;20050;-82
2022/08/20 05:18:52;;;;;;;5.53;3.25;;;20.00;99.90;;;;;;5023648;28;20081;-81
2022/08/20 05:21:20;;;;;;;6.05;3.22;;;20.00;99.90;;;;;;5029401;28;20110;-81
2022/08/20 05:23:47;;;;;;;3.75;3.10;;;20.00;99.90;;;;;;5031719;28;20053;-81
2022/08/20 05:26:15;;;;;;;6.30;3.22;;;20.20;99.90;;;;;;5032130;28;20068;-82
2022/08/20 05:28:42;;;;;;;9.55;3.25;;;20.00;99.90;;;;;;5032539;28;20042;-82
2022/08/20 05:31:27;;;;;;;8.65;3.03;;;20.00;99.90;;;;;;5039298;28;20049;-81
2022/08/20 05:34:10;;;;;;;3.72;2.90;;;20.00;99.90;;;;;;5036752;28;20077;-82
2022/08/20 05:36:39;;;;;;;5.65;3.58;;;20.00;99.90;;;;;;5034643;28;20046;-81
2022/08/20 05:39:07;;;;;;;7.38;3.50;;;20.00;99.90;;;;;;5036089;28;20053;-82
2022/08/20 05:41:35;;;;;;;5.28;3.58;;;20.00;99.90;;;;;;5033691;28;20049;-82
2022/08/20 05:44:02;;;;;;;4.20;3.53;;;20.00;99.90;;;;;;5034102;28;20135;-81
2022/08/20 05:46:30;;;;;;;7.57;3.92;;;20.00;99.90;;;;;;5035015;28;20086;-81
2022/08/20 05:49:00;;;;;;;4.68;3.40;;;20.00;99.90;;;;;;5024428;28;20407;-82
2022/08/20 05:51:28;;;;;;;5.15;3.88;;;20.00;99.90;;;;;;5030410;28;20042;-81
2022/08/20 05:53:56;;;;;;;5.80;3.67;;;20.00;99.90;;;;;;5036711;28;20056;-81
2022/08/20 05:56:28;;;;;;;5.85;4.03;;;20.00;99.90;;;;;;5040919;28;20041;-80
2022/08/20 05:58:58;;;;;;;6.43;4.63;;;20.00;99.90;;;;;;5038521;28;20053;-82
2022/08/20 06:01:25;;;;;;;7.35;4.07;;;20.00;99.90;;;;;;5038493;28;20114;-81
2022/08/20 06:06:37;;;;;;;8.27;4.50;;;20.00;99.90;;;;;;5036703;28;20077;-82
2022/08/20 06:09:17;;;;;;;6.05;4.25;;;20.00;99.90;;;;;;5044346;28;20076;-80
2022/08/20 06:12:02;;;;;;;7.10;4.65;;;19.90;99.90;;;;;;5044149;28;20451;-80
2022/08/20 06:14:30;;;;;;;7.90;4.00;;;20.00;99.90;;;;;;5040603;28;20053;-81
2022/08/20 06:17:09;;;;;;;4.68;3.58;;;19.80;99.90;;;;;;5040896;28;20041;-82
2022/08/20 06:19:39;;;;;;;4.63;3.70;;;19.90;99.90;;;;;;5044275;28;20061;-82
2022/08/20 06:22:10;;;;;;;6.60;3.50;;;19.90;99.90;;;;;;5027774;28;20046;-82
2022/08/20 06:24:50;;;;;;;5.32;3.30;;;19.90;99.90;;;;;;5046483;28;20064;-81
2022/08/20 06:27:17;;;;;;;4.90;3.78;;;20.00;99.90;;;;;;5053325;28;20065;-81
2022/08/20 06:29:44;;;;;;;5.13;3.42;;;20.00;99.90;;;;;;5052071;28;20038;-82
2022/08/20 06:32:10;;;;;;;7.85;3.88;;;20.00;99.90;;;;;;5053430;28;20045;-80
2022/08/20 06:34:37;;;;;;;4.63;3.45;;;20.00;99.90;;;;;;5043945;28;20042;-82
2022/08/20 06:37:17;;;;;;;4.28;3.40;;;20.00;99.90;;;;;;5034419;28;20049;-82
2022/08/20 06:39:44;;;;;;;5.30;3.63;;;20.10;99.90;;;;;;5034992;28;20053;-82
2022/08/20 06:42:10;;;;;;;7.47;4.07;;;19.90;99.90;;;;;;5033827;28;20496;-82
2022/08/20 06:44:37;;;;;;;6.15;3.70;;;20.10;99.90;;;;;;5033103;28;20076;-82
2022/08/20 06:47:05;;;;;;;7.55;4.10;;;20.10;99.90;;;;;;5039959;28;20049;-81
2022/08/20 06:49:35;;;;;;;5.32;4.07;;;20.20;99.90;;;;;;5028417;28;20069;-80
2022/08/20 06:52:04;;;;;;;5.88;3.90;;;20.20;99.90;;;;;;5041013;28;20110;-82
2022/08/20 06:54:31;;;;;;;5.03;3.92;;;20.20;99.90;;;;;;5038312;28;20108;-82
2022/08/20 06:56:58;;;;;;;8.40;3.63;;;20.00;99.90;;;;;;5044043;28;20050;-80
2022/08/20 06:59:25;;;;;;;7.35;3.92;;;20.20;99.90;;;;;;5043146;28;20050;-81
2022/08/20 07:01:55;;;;;;;6.80;3.78;;;20.20;99.90;;;;;;5030738;28;20054;-81
2022/08/20 07:04:24;;;;;;;6.63;4.13;;;20.30;99.90;;;;;;5032382;28;20054;-80
2022/08/20 07:06:56;;;;;;;6.00;4.40;;;20.40;99.90;;;;;;5043697;28;20045;-81
2022/08/20 07:09:25;;;;;;;5.03;3.80;;;20.40;99.90;;;;;;5044638;28;20491;-82
2022/08/20 07:11:52;;;;;;;4.32;3.53;;;20.50;99.90;;;;;;5028205;28;20054;-81
2022/08/20 07:14:19;;;;;;;8.13;3.70;;;20.50;99.90;;;;;;5027443;28;20049;-82
2022/08/20 07:16:47;;;;;;;4.47;3.70;;;20.60;99.90;;;;;;5040918;28;20049;-81
2022/08/20 07:19:13;;;;;;;5.10;3.60;;;20.60;99.90;;;;;;5044951;28;20049;-81
2022/08/20 07:21:40;;;;;;;3.60;2.97;;;20.60;99.90;;;;;;5045067;28;20077;-81
2022/08/20 07:24:08;;;;;;;4.45;2.72;;;20.60;99.90;;;;;;5046778;28;20511;-81
2022/08/20 07:26:35;;;;;;;3.80;2.92;;;20.70;99.90;;;;;;5029221;28;20128;-81
2022/08/20 07:29:02;;;;;;;4.00;2.97;;;20.70;99.90;;;;;;5029445;28;20052;-82
2022/08/20 07:34:15;;;;;;;3.30;2.70;;;20.70;99.90;;;;;;5028473;28;20042;-82
2022/08/20 07:36:42;;;;;;;3.53;2.85;;;20.80;99.90;;;;;;5028080;28;20089;-81
2022/08/20 07:39:09;;;;;;;4.65;2.67;;;20.80;99.90;;;;;;5027066;28;20077;-82
2022/08/20 07:41:36;;;;;;;3.13;2.53;;;20.80;99.90;;;;;;5026793;28;20046;-82
2022/08/20 07:44:03;;;;;;;3.85;2.17;;;20.90;99.90;;;;;;5026522;28;20054;-82
2022/08/20 07:46:30;;;;;;;5.40;2.33;;;21.00;99.90;;;;;;5031392;28;20084;-82
2022/08/20 07:48:57;;;;;;;4.15;2.30;;;21.00;99.90;;;;;;5044351;28;20076;-83
2022/08/20 07:51:25;;;;;;;3.47;3.00;;;21.10;99.90;;;;;;5025198;28;20073;-82
2022/08/20 07:53:52;;;;;;;6.05;3.17;;;21.30;99.90;;;;;;5025101;28;20088;-82
2022/08/20 07:56:22;;;;;;;5.95;2.80;;;21.30;99.90;;;;;;5026352;28;20050;-83
2022/08/20 07:58:54;;;;;;;3.13;2.50;;;21.30;99.90;;;;;;5025738;28;20077;-82
2022/08/20 08:01:24;;;;;;;2.15;1.98;;;21.20;99.90;;;;;;5026163;28;20050;-83
2022/08/20 08:03:51;;;;;;;7.32;2.72;;;21.30;99.90;;;;;;5025425;28;20133;-83
2022/08/20 08:06:20;;;;;;;3.22;2.80;;;21.50;99.90;;;;;;5026404;28;20045;-82
2022/08/20 08:09:17;;;;;;;2.97;2.15;;;21.60;99.90;;;;;;5025384;28;20042;-82
2022/08/20 08:11:49;;;;;;;5.38;2.60;;;21.80;99.90;;;;;;5025462;28;20046;-82
2022/08/20 08:14:22;;;;;;;5.05;2.42;;;22.00;99.90;;;;;;5025668;28;20046;-82
2022/08/20 08:16:49;;;;;;;3.40;2.67;;;22.00;99.90;;;;;;5027892;28;20058;-82
2022/08/20 08:19:17;;;;;;;2.95;2.30;;;22.20;99.90;;;;;;5027691;28;20073;-83
2022/08/20 08:21:44;;;;;;;5.13;1.90;;;22.20;99.90;;;;;;5027792;28;20089;-82
2022/08/20 08:24:11;;;;;;;2.25;1.83;;;22.30;99.90;;;;;;5025908;28;20060;-81
2022/08/20 08:26:48;;;;;;;2.85;1.75;;;22.30;99.90;;;;;;5025820;28;20058;-83
2022/08/20 08:29:15;;;;;;;;;;;22.40;99.90;;;;;;5028889;28;20069;-82
2022/08/20 08:31:42;;;;;;;2.30;1.63;;;22.40;99.90;;;;;;5028367;28;20003;-83
2022/08/20 08:34:09;;;;;;;1.67;1.55;;;22.50;99.90;;;;;;5029054;28;20053;-82
2022/08/20 08:36:38;;;;;;;2.25;1.55;;;22.50;99.90;;;;;;5029081;28;20049;-82
2022/08/20 08:39:05;;;;;;;4.40;1.30;;;22.50;99.90;;;;;;5028259;28;20090;-83
2022/08/20 08:41:35;;;;;;;1.52;1.20;;;22.60;99.90;;;;;;5035259;28;20053;-82
2022/08/20 08:44:13;;;;;;;2.65;1.30;;;22.50;99.90;;;;;;5029941;28;20049;-82
2022/08/20 08:46:47;;;;;;;3.03;1.05;;;22.60;99.90;;;;;;5041311;28;20049;-83
2022/08/20 08:49:18;;;;;;;2.15;1.40;;;22.60;99.90;;;;;;5041871;28;20073;-82
2022/08/20 08:52:24;;;;;;;1.23;1.13;;;22.60;99.90;;;;;;5032818;28;20053;-82
2022/08/20 08:54:55;;;;;;;1.65;1.20;;;22.60;99.90;;;;;;5039119;28;20095;-82
2022/08/20 08:57:22;;;;;;;0.98;0.93;;;22.50;99.90;;;;;;5040653;28;20069;-82
2022/08/20 09:00:12;;;;;;;3.00;1.20;;;22.60;99.90;;;;;;5038059;28;20053;-82
2022/08/20 09:02:51;;;;;;;1.70;1.20;;;22.60;99.90;;;;;;5042458;28;20061;-82
2022/08/20 09:05:21;;;;;;;1.35;1.10;;;22.70;99.90;;;;;;5039362;28;20056;-82
2022/08/20 09:07:50;;;;;;;1.95;1.10;;;22.70;99.90;;;;;;5033295;28;20073;-82
2022/08/20 09:10:18;;;;;;;1.40;1.10;;;22.70;99.90;;;;;;5033994;28;20041;-82
2022/08/20 09:12:49;;;;;;;1.15;1.05;;;22.90;99.90;;;;;;5033978;28;20042;-82
2022/08/20 09:15:18;;;;;;;1.15;1.02;;;22.90;99.90;;;;;;5034954;28;20053;-81
2022/08/20 09:17:44;;;;;;;1.48;0.90;;;22.80;99.90;;;;;;5036260;28;20050;-83
2022/08/20 09:20:11;;;;;;;1.98;0.85;;;22.90;99.90;;;;;;5033978;28;20046;-83
2022/08/20 09:22:39;;;;;;;0.70;0.60;;;23.00;99.90;;;;;;5032156;28;20049;-82
2022/08/20 09:25:07;;;;;;;2.05;0.50;;;23.10;99.90;;;;;;5032689;28;20114;-82
2022/08/20 09:27:33;;;;;;;0.95;0.80;;;23.10;99.90;;;;;;5032152;28;20046;-82
2022/08/20 09:30:02;;;;;;;3.28;0.77;;;23.20;99.90;;;;;;5034596;28;20142;-82
2022/08/20 09:32:29;;;;;;;0.85;0.75;;;23.30;99.90;;;;;;5035275;28;20455;-83
2022/08/20 09:34:56;;;;;;;0.52;0.52;;;23.30;99.90;;;;;;5035548;28;20030;-82
2022/08/20 09:37:26;;;;;;;1.25;0.80;;;23.30;99.90;;;;;;5036495;28;20088;-82
2022/08/20 09:39:53;;;;;;;0.90;0.70;;;23.40;99.90;;;;;;5032519;28;20077;-83
2022/08/20 09:42:23;;;;;;;1.60;0.60;;;23.30;99.90;;;;;;5032365;28;20140;-82
2022/08/20 09:44:50;;;;;;;1.25;0.70;;;23.40;99.90;;;;;;5033261;28;20694;-83
2022/08/20 09:47:17;;;;;;;2.03;1.40;;;23.30;99.90;;;;;;5034276;28;20080;-82
2022/08/20 09:49:44;;;;;;;3.40;0.90;;;23.30;99.90;;;;;;5035522;28;20057;-82
2022/08/20 09:52:21;;;;;;;1.08;0.70;;;23.30;99.90;;;;;;5024383;28;20125;-82
2022/08/20 09:54:49;;;;;;;0.60;0.60;;;23.30;99.90;;;;;;5028909;28;20050;-82
2022/08/20 09:57:16;;;;;;;0.52;0.43;;;23.40;99.90;;;;;;5034955;28;20050;-82
2022/08/20 09:59:44;;;;;;;1.08;1.00;;;23.50;99.90;;;;;;5034893;28;20046;-82
2022/08/20 10:02:11;;;;;;;2.05;0.70;;;23.60;99.90;;;;;;5035252;28;20049;-83
2022/08/20 10:04:37;;;;;;;3.90;0.90;;;23.60;99.90;;;;;;5033353;28;20058;-83
2022/08/20 10:07:07;;;;;;;0.50;0.45;;;23.60;99.90;;;;;;5042133;28;20054;-83
2022/08/20 10:09:36;;;;;;;2.30;0.90;;;23.60;99.90;;;;;;5034814;28;20073;-83
2022/08/20 10:12:05;;;;;;;1.38;0.60;;;23.60;99.90;;;;;;5033030;28;20042;-84
2022/08/20 10:14:32;;;;;;;0.68;0.60;;;23.60;99.90;;;;;;5031436;28;20080;-83
2022/08/20 10:17:00;;;;;;;0.80;0.57;;;23.60;99.90;;;;;;5032209;28;20105;-82
2022/08/20 10:19:29;;;;;;;1.05;0.50;;;23.60;99.90;;;;;;5030937;28;20077;-82
2022/08/20 10:21:56;;;;;;;1.15;0.40;;;23.60;99.90;;;;;;5040069;28;20142;-81
2022/08/20 10:24:24;;;;;;;2.25;0.50;;;23.60;99.90;;;;;;5031411;28;20081;-81
2022/08/20 10:26:54;;;;;;;1.10;0.70;;;23.70;99.90;;;;;;5041256;28;20050;-82
2022/08/20 10:29:21;;;;;;;0.60;0.60;;;23.60;99.90;;;;;;5038359;28;20076;-81
2022/08/20 10:31:47;;;;;;;1.13;0.50;;;23.60;99.90;;;;;;5043925;28;20122;-83
2022/08/20 10:34:14;;;;;;;1.50;0.50;;;23.60;99.90;;;;;;5037336;28;20171;-81
2022/08/20 10:36:42;;;;;;;0.50;0.50;;;23.60;99.90;;;;;;5039859;28;20042;-83
2022/08/20 10:39:09;;;;;;;0.43;0.43;;;23.50;99.90;;;;;;5041193;28;20353;-81
2022/08/20 10:41:35;;;;;;;0.50;0.50;;;23.60;99.90;;;;;;5041242;28;20139;-82
2022/08/20 10:44:05;;;;;;;0.95;0.40;;;23.60;99.90;;;;;;5032820;28;20096;-82
2022/08/20 10:46:33;;;;;;;0.60;0.47;;;23.70;99.90;;;;;;5032116;28;20079;-83
2022/08/20 10:48:59;;;;;;;0.40;0.40;;;23.70;99.90;;;;;;5026558;28;20526;-82
2022/08/20 10:51:26;;;;;;;1.15;0.30;;;23.70;99.90;;;;;;5026411;28;20137;-82
2022/08/20 10:53:58;;;;;;;1.75;0.47;;;23.70;99.90;;;;;;5030704;28;20049;-82
2022/08/20 10:56:25;;;;;;;1.30;0.40;;;23.70;99.90;;;;;;5034860;28;20045;-81
2022/08/20 10:58:52;;;;;;;0.82;0.47;;;23.60;99.90;;;;;;5048450;28;20069;-82
2022/08/20 11:01:19;;;;;;;1.33;0.50;;;23.60;99.90;;;;;;5032677;28;20081;-81
2022/08/20 11:03:59;;;;;;;0.55;0.40;;;23.60;99.90;;;;;;5029269;28;20073;-81
2022/08/20 11:06:26;;;;;;;0.90;0.30;;;23.70;99.90;;;;;;5030137;28;20110;-81
2022/08/20 11:08:52;;;;;;;1.58;0.40;;;23.90;99.90;;;;;;5028496;28;20057;-82
2022/08/20 11:11:22;;;;;;;0.38;0.38;;;24.10;99.90;;;;;;5029243;28;20049;-82
2022/08/20 11:13:49;;;;;;;0.75;0.30;;;24.20;99.90;;;;;;5029222;28;20124;-83
2022/08/20 11:16:16;;;;;;;0.47;0.45;;;24.20;99.90;;;;;;5042099;28;20049;-82
2022/08/20 11:18:42;;;;;;;1.13;0.40;;;24.30;99.90;;;;;;5042402;28;20494;-81
2022/08/20 11:21:13;;;;;;;0.50;0.30;;;24.30;99.90;;;;;;5044016;28;20133;-82
2022/08/20 11:23:40;;;;;;;2.10;0.70;;;24.30;99.90;;;;;;5043416;28;20060;-83
2022/08/20 11:26:07;;;;;;;0.60;0.40;;;24.40;99.90;;;;;;5047938;28;20051;-84
2022/08/20 11:28:34;;;;;;;0.50;0.35;;;24.40;99.90;;;;;;5042401;28;20053;-82
2022/08/20 11:31:01;;;;;;;0.30;0.30;;;24.40;99.90;;;;;;5042977;28;20072;-82
2022/08/20 11:33:28;;;;;;;0.40;0.40;;;24.50;99.90;;;;;;5039906;28;20083;-82
2022/08/20 11:35:55;;;;;;;0.50;0.50;;;24.50;99.90;;;;;;5042745;28;20050;-82
2022/08/20 11:38:21;;;;;;;0.82;0.40;;;24.60;99.90;;;;;;5042211;28;20058;-81
2022/08/20 11:40:48;;;;;;;0.52;0.43;;;24.70;99.90;;;;;;5043320;28;20080;-82
2022/08/20 11:43:15;;;;;;;0.47;0.20;;;24.80;99.90;;;;;;5043047;28;20117;-82
2022/08/20 11:45:46;;;;;;;0.73;0.55;;;24.80;99.90;;;;;;5043387;28;20076;-83
2022/08/20 11:48:13;;;;;;;0.32;0.32;;;24.90;99.90;;;;;;5042236;28;20487;-83
2022/08/20 11:50:40;;;;;;;0.30;0.30;;;24.90;99.90;;;;;;5043191;28;20087;-83
2022/08/20 11:53:07;;;;;;;1.17;0.70;;;24.90;99.90;;;;;;5032007;28;20117;-82
2022/08/20 11:55:35;;;;;;;0.55;0.50;;;24.90;99.90;;;;;;5024765;28;20105;-83
2022/08/20 11:58:02;;;;;;;2.78;0.50;;;24.90;99.90;;;;;;5025527;28;20050;-83
2022/08/20 12:00:30;;;;;;;2.25;0.43;;;24.80;99.90;;;;;;5023942;28;20084;-83
2022/08/20 12:03:00;;;;;;;2.92;0.50;;;24.60;99.90;;;;;;5025295;28;20058;-82
2022/08/20 12:05:28;;;;;;;1.45;0.40;;;24.60;99.90;;;;;;5025500;28;20054;-82
2022/08/20 12:07:56;;;;;;;0.57;0.30;;;24.40;99.90;;;;;;5026440;28;20261;-82
2022/08/20 12:10:25;;;;;;;0.47;0.40;;;23.90;99.90;;;;;;5026454;28;20045;-82
2022/08/20 12:12:52;;;;;;;0.43;0.40;;;23.80;99.90;;;;;;5026522;28;20106;-82
2022/08/20 12:15:19;;;;;;;0.60;0.30;;;23.80;99.90;;;;;;5025497;28;20049;-83
2022/08/20 12:17:46;;;;;;;1.10;0.40;;;23.80;99.90;;;;;;5026740;28;20057;-83
2022/08/20 12:20:14;;;;;;;0.90;0.50;;;23.70;99.90;;;;;;5028473;28;20118;-83
2022/08/20 12:22:41;;;;;;;0.40;0.40;;;23.70;99.90;;;;;;5029175;28;20080;-82
2022/08/20 12:25:08;;;;;;;3.03;0.77;;;23.70;99.90;;;;;;5024209;28;20073;-82
2022/08/20 12:27:36;;;;;;;0.80;0.60;;;23.60;99.90;;;;;;5024683;28;20069;-84
2022/08/20 12:30:07;;;;;;;1.55;0.60;;;23.50;99.90;;;;;;5037252;28;20084;-83
2022/08/20 12:32:34;;;;;;;1.63;0.77;;;23.50;99.90;;;;;;5027982;28;20077;-84
2022/08/20 12:35:02;;;;;;;0.60;0.47;;;23.50;99.90;;;;;;5027744;28;20114;-82
2022/08/20 12:37:29;;;;;;;0.70;0.70;;;23.40;99.90;;;;;;5024827;28;20515;-83
2022/08/20 12:39:58;;;;;;;3.45;0.68;;;23.30;99.90;;;;;;5035367;28;20061;-83
2022/08/20 12:42:26;;;;;;;2.92;0.52;;;23.30;99.90;;;;;;5027675;28;20063;-83
2022/08/20 12:44:53;;;;;;;0.50;0.50;;;23.20;99.90;;;;;;5024136;28;20050;-82
2022/08/20 12:47:24;;;;;;;0.38;0.38;;;23.10;99.90;;;;;;5024037;28;20061;-82
2022/08/20 12:49:53;;;;;;;0.57;0.47;;;23.10;99.90;;;;;;5036804;28;20052;-82
2022/08/20 12:52:22;;;;;;;0.93;0.40;;;23.10;99.90;;;;;;5040004;28;20053;-82
2022/08/20 12:54:48;;;;;;;0.63;0.60;;;23.10;99.90;;;;;;5038469;28;20114;-82
2022/08/20 12:57:27;;;;;;;0.30;0.30;;;23.10;99.90;;;;;;5024260;28;20057;-83
2022/08/20 12:59:59;;;;;;;0.88;0.50;;;23.00;99.90;;;;;;5024319;28;20046;-82
2022/08/20 13:02:29;;;;;;;0.45;0.25;;;23.00;99.90;;;;;;5030598;28;20049;-83
2022/08/20 13:04:56;;;;;;;0.40;0.30;;;23.10;99.90;;;;;;5032173;28;20088;-82